sensor_id;sensor_type;location;lat;lon;timestamp;P1;durP1;ratioP1;P2;durP2;ratioP2
14408;SDS011;7289;50.706;4.992;2024-01-11T00:00:38;0.60;;;0.60;;
14408;SDS011;7289;50.706;4.992;2024-01-11T00:03:06;0.60;;;0.60;;
14408;SDS011;7289;50.706;4.992;2024-01-11T00:05:34;0.60;;;0.60;;
14408;SDS011;7289;50.706;4.992;2024-01-11T00:08:04;0.60;;;0.60;;
14408;SDS011;7289;50.706;4.992;2024-01-11T00:10:32;0.60;;;0.60;;
14408;SDS011;7289;50.706;4.992;2024-01-11T00:13:02;0.50;;;0.50;;
14408;SDS011;7289;50.706;4.992;2024-01-11T00:15:31;0.60;;;0.60;;
14408;SDS011;7289;50.706;4.992;2024-01-11T00:18:00;0.60;;;0.60;;
14408;SDS011;7289;50.706;4.992;2024-01-11T00:20:29;0.60;;;0.60;;
14408;SDS011;7289;50.706;4.992;2024-01-11T00:22:57;0.70;;;0.70;;
14408;SDS011;7289;50.706;4.992;2024-01-11T00:25:26;0.60;;;0.60;;
14408;SDS011;7289;50.706;4.992;2024-01-11T00:27:54;0.60;;;0.60;;
14408;SDS011;7289;50.706;4.992;2024-01-11T00:30:24;0.60;;;0.60;;
14408;SDS011;7289;50.706;4.992;2024-01-11T00:32:52;0.60;;;0.60;;
14408;SDS011;7289;50.706;4.992;2024-01-11T00:35:21;0.67;;;0.67;;
14408;SDS011;7289;50.706;4.992;2024-01-11T00:37:49;0.57;;;0.57;;
14408;SDS011;7289;50.706;4.992;2024-01-11T00:40:18;0.57;;;0.57;;
14408;SDS011;7289;50.706;4.992;2024-01-11T00:42:46;0.60;;;0.60;;
14408;SDS011;7289;50.706;4.992;2024-01-11T00:45:15;0.60;;;0.60;;
14408;SDS011;7289;50.706;4.992;2024-01-11T00:47:46;0.70;;;0.70;;
14408;SDS011;7289;50.706;4.992;2024-01-11T00:50:14;0.70;;;0.70;;
14408;SDS011;7289;50.706;4.992;2024-01-11T00:52:43;0.60;;;0.60;;
14408;SDS011;7289;50.706;4.992;2024-01-11T00:55:11;0.60;;;0.60;;
14408;SDS011;7289;50.706;4.992;2024-01-11T00:57:40;0.60;;;0.60;;
14408;SDS011;7289;50.706;4.992;2024-01-11T01:00:09;0.63;;;0.63;;
14408;SDS011;7289;50.706;4.992;2024-01-11T01:02:40;0.60;;;0.60;;
14408;SDS011;7289;50.706;4.992;2024-01-11T01:05:10;0.50;;;0.50;;
14408;SDS011;7289;50.706;4.992;2024-01-11T01:07:39;0.60;;;0.60;;
14408;SDS011;7289;50.706;4.992;2024-01-11T01:10:08;0.60;;;0.60;;
14408;SDS011;7289;50.706;4.992;2024-01-11T01:12:36;0.80;;;0.80;;
14408;SDS011;7289;50.706;4.992;2024-01-11T01:15:05;0.70;;;0.70;;
14408;SDS011;7289;50.706;4.992;2024-01-11T01:17:34;0.80;;;0.80;;
14408;SDS011;7289;50.706;4.992;2024-01-11T01:20:03;0.70;;;0.70;;
14408;SDS011;7289;50.706;4.992;2024-01-11T01:22:34;0.60;;;0.60;;
14408;SDS011;7289;50.706;4.992;2024-01-11T01:25:03;0.60;;;0.60;;
14408;SDS011;7289;50.706;4.992;2024-01-11T01:27:32;0.70;;;0.70;;
14408;SDS011;7289;50.706;4.992;2024-01-11T01:30:00;0.50;;;0.50;;
14408;SDS011;7289;50.706;4.992;2024-01-11T01:32:29;0.60;;;0.60;;
14408;SDS011;7289;50.706;4.992;2024-01-11T01:34:58;0.70;;;0.70;;
14408;SDS011;7289;50.706;4.992;2024-01-11T01:37:26;0.60;;;0.60;;
14408;SDS011;7289;50.706;4.992;2024-01-11T01:39:56;0.70;;;0.70;;
14408;SDS011;7289;50.706;4.992;2024-01-11T01:42:25;0.60;;;0.60;;
14408;SDS011;7289;50.706;4.992;2024-01-11T01:44:53;0.90;;;0.90;;
14408;SDS011;7289;50.706;4.992;2024-01-11T01:47:22;0.80;;;0.80;;
14408;SDS011;7289;50.706;4.992;2024-01-11T01:49:50;0.60;;;0.60;;
14408;SDS011;7289;50.706;4.992;2024-01-11T01:52:20;0.80;;;0.80;;
14408;SDS011;7289;50.706;4.992;2024-01-11T01:54:49;0.60;;;0.60;;
14408;SDS011;7289;50.706;4.992;2024-01-11T01:57:19;0.70;;;0.70;;
14408;SDS011;7289;50.706;4.992;2024-01-11T01:59:48;0.70;;;0.70;;
14408;SDS011;7289;50.706;4.992;2024-01-11T02:02:19;0.70;;;0.70;;
14408;SDS011;7289;50.706;4.992;2024-01-11T02:04:48;0.60;;;0.60;;
14408;SDS011;7289;50.706;4.992;2024-01-11T02:07:18;0.60;;;0.60;;
14408;SDS011;7289;50.706;4.992;2024-01-11T02:09:47;0.67;;;0.67;;
14408;SDS011;7289;50.706;4.992;2024-01-11T02:12:15;0.70;;;0.70;;
14408;SDS011;7289;50.706;4.992;2024-01-11T02:14:45;0.80;;;0.80;;
14408;SDS011;7289;50.706;4.992;2024-01-11T02:17:14;0.80;;;0.80;;
14408;SDS011;7289;50.706;4.992;2024-01-11T02:19:42;0.70;;;0.70;;
14408;SDS011;7289;50.706;4.992;2024-01-11T02:22:12;0.70;;;0.70;;
14408;SDS011;7289;50.706;4.992;2024-01-11T02:24:50;0.87;;;0.87;;
14408;SDS011;7289;50.706;4.992;2024-01-11T02:27:19;0.70;;;0.70;;
14408;SDS011;7289;50.706;4.992;2024-01-11T02:29:48;0.80;;;0.80;;
14408;SDS011;7289;50.706;4.992;2024-01-11T02:32:16;0.70;;;0.70;;
14408;SDS011;7289;50.706;4.992;2024-01-11T02:34:45;0.63;;;0.63;;
14408;SDS011;7289;50.706;4.992;2024-01-11T02:37:14;0.60;;;0.60;;
14408;SDS011;7289;50.706;4.992;2024-01-11T02:39:42;0.60;;;0.60;;
14408;SDS011;7289;50.706;4.992;2024-01-11T02:42:11;0.70;;;0.70;;
14408;SDS011;7289;50.706;4.992;2024-01-11T02:44:40;0.60;;;0.60;;
14408;SDS011;7289;50.706;4.992;2024-01-11T02:47:08;0.60;;;0.60;;
14408;SDS011;7289;50.706;4.992;2024-01-11T02:49:37;0.80;;;0.80;;
14408;SDS011;7289;50.706;4.992;2024-01-11T02:52:05;0.70;;;0.70;;
14408;SDS011;7289;50.706;4.992;2024-01-11T02:54:34;0.60;;;0.60;;
14408;SDS011;7289;50.706;4.992;2024-01-11T02:57:02;0.60;;;0.60;;
14408;SDS011;7289;50.706;4.992;2024-01-11T02:59:32;0.70;;;0.70;;
14408;SDS011;7289;50.706;4.992;2024-01-11T03:02:01;0.63;;;0.63;;
14408;SDS011;7289;50.706;4.992;2024-01-11T03:04:29;0.60;;;0.60;;
14408;SDS011;7289;50.706;4.992;2024-01-11T03:06:58;0.60;;;0.60;;
14408;SDS011;7289;50.706;4.992;2024-01-11T03:09:27;0.73;;;0.73;;
14408;SDS011;7289;50.706;4.992;2024-01-11T03:11:55;0.60;;;0.60;;
14408;SDS011;7289;50.706;4.992;2024-01-11T03:14:24;0.80;;;0.80;;
14408;SDS011;7289;50.706;4.992;2024-01-11T03:16:53;0.70;;;0.70;;
14408;SDS011;7289;50.706;4.992;2024-01-11T03:19:22;0.60;;;0.60;;
14408;SDS011;7289;50.706;4.992;2024-01-11T03:21:50;0.60;;;0.60;;
14408;SDS011;7289;50.706;4.992;2024-01-11T03:24:19;0.70;;;0.70;;
14408;SDS011;7289;50.706;4.992;2024-01-11T03:26:47;0.70;;;0.70;;
14408;SDS011;7289;50.706;4.992;2024-01-11T03:29:16;0.60;;;0.60;;
14408;SDS011;7289;50.706;4.992;2024-01-11T03:31:44;0.60;;;0.60;;
14408;SDS011;7289;50.706;4.992;2024-01-11T03:34:14;0.60;;;0.60;;
14408;SDS011;7289;50.706;4.992;2024-01-11T03:36:43;0.60;;;0.60;;
14408;SDS011;7289;50.706;4.992;2024-01-11T03:39:12;0.50;;;0.50;;
14408;SDS011;7289;50.706;4.992;2024-01-11T03:41:43;0.67;;;0.67;;
14408;SDS011;7289;50.706;4.992;2024-01-11T03:44:11;0.60;;;0.60;;
14408;SDS011;7289;50.706;4.992;2024-01-11T03:46:40;0.60;;;0.60;;
14408;SDS011;7289;50.706;4.992;2024-01-11T03:49:08;0.67;;;0.67;;
14408;SDS011;7289;50.706;4.992;2024-01-11T03:51:38;0.60;;;0.60;;
14408;SDS011;7289;50.706;4.992;2024-01-11T03:54:07;0.80;;;0.80;;
14408;SDS011;7289;50.706;4.992;2024-01-11T03:56:37;0.80;;;0.80;;
14408;SDS011;7289;50.706;4.992;2024-01-11T03:59:07;0.70;;;0.70;;
14408;SDS011;7289;50.706;4.992;2024-01-11T04:01:38;0.70;;;0.70;;
14408;SDS011;7289;50.706;4.992;2024-01-11T04:04:07;0.53;;;0.53;;
14408;SDS011;7289;50.706;4.992;2024-01-11T04:06:36;0.60;;;0.60;;
14408;SDS011;7289;50.706;4.992;2024-01-11T04:09:06;0.70;;;0.70;;
14408;SDS011;7289;50.706;4.992;2024-01-11T04:11:34;0.87;;;0.87;;
14408;SDS011;7289;50.706;4.992;2024-01-11T04:14:02;0.80;;;0.80;;
14408;SDS011;7289;50.706;4.992;2024-01-11T04:16:31;0.60;;;0.60;;
14408;SDS011;7289;50.706;4.992;2024-01-11T04:19:00;0.90;;;0.90;;
14408;SDS011;7289;50.706;4.992;2024-01-11T04:21:30;0.70;;;0.70;;
14408;SDS011;7289;50.706;4.992;2024-01-11T04:23:59;0.67;;;0.67;;
14408;SDS011;7289;50.706;4.992;2024-01-11T04:26:29;0.70;;;0.70;;
14408;SDS011;7289;50.706;4.992;2024-01-11T04:28:57;0.60;;;0.60;;
14408;SDS011;7289;50.706;4.992;2024-01-11T04:31:26;0.60;;;0.60;;
14408;SDS011;7289;50.706;4.992;2024-01-11T04:33:55;0.60;;;0.60;;
14408;SDS011;7289;50.706;4.992;2024-01-11T04:36:24;0.63;;;0.63;;
14408;SDS011;7289;50.706;4.992;2024-01-11T04:38:52;0.90;;;0.90;;
14408;SDS011;7289;50.706;4.992;2024-01-11T04:41:20;0.70;;;0.70;;
14408;SDS011;7289;50.706;4.992;2024-01-11T04:43:50;0.60;;;0.60;;
14408;SDS011;7289;50.706;4.992;2024-01-11T04:46:19;0.60;;;0.60;;
14408;SDS011;7289;50.706;4.992;2024-01-11T04:48:48;0.70;;;0.70;;
14408;SDS011;7289;50.706;4.992;2024-01-11T04:51:18;0.63;;;0.63;;
14408;SDS011;7289;50.706;4.992;2024-01-11T04:53:46;0.70;;;0.70;;
14408;SDS011;7289;50.706;4.992;2024-01-11T04:56:15;0.60;;;0.60;;
14408;SDS011;7289;50.706;4.992;2024-01-11T04:58:45;0.60;;;0.60;;
14408;SDS011;7289;50.706;4.992;2024-01-11T05:01:15;0.67;;;0.67;;
14408;SDS011;7289;50.706;4.992;2024-01-11T05:03:45;0.70;;;0.70;;
14408;SDS011;7289;50.706;4.992;2024-01-11T05:06:17;0.67;;;0.67;;
14408;SDS011;7289;50.706;4.992;2024-01-11T05:08:46;0.60;;;0.60;;
14408;SDS011;7289;50.706;4.992;2024-01-11T05:11:18;0.70;;;0.70;;
14408;SDS011;7289;50.706;4.992;2024-01-11T05:13:47;0.70;;;0.70;;
14408;SDS011;7289;50.706;4.992;2024-01-11T05:16:19;0.70;;;0.70;;
14408;SDS011;7289;50.706;4.992;2024-01-11T05:18:49;0.70;;;0.70;;
14408;SDS011;7289;50.706;4.992;2024-01-11T05:21:17;0.60;;;0.60;;
14408;SDS011;7289;50.706;4.992;2024-01-11T05:23:46;0.70;;;0.70;;
14408;SDS011;7289;50.706;4.992;2024-01-11T05:26:16;0.60;;;0.60;;
14408;SDS011;7289;50.706;4.992;2024-01-11T05:28:45;0.70;;;0.70;;
14408;SDS011;7289;50.706;4.992;2024-01-11T05:31:13;0.90;;;0.90;;
14408;SDS011;7289;50.706;4.992;2024-01-11T05:33:45;0.60;;;0.60;;
14408;SDS011;7289;50.706;4.992;2024-01-11T05:36:15;0.60;;;0.60;;
14408;SDS011;7289;50.706;4.992;2024-01-11T05:38:44;0.50;;;0.50;;
14408;SDS011;7289;50.706;4.992;2024-01-11T05:41:13;0.70;;;0.70;;
14408;SDS011;7289;50.706;4.992;2024-01-11T05:43:41;0.80;;;0.80;;
14408;SDS011;7289;50.706;4.992;2024-01-11T05:46:10;0.60;;;0.60;;
14408;SDS011;7289;50.706;4.992;2024-01-11T05:48:39;0.60;;;0.60;;
14408;SDS011;7289;50.706;4.992;2024-01-11T05:51:09;0.70;;;0.70;;
14408;SDS011;7289;50.706;4.992;2024-01-11T05:53:38;0.60;;;0.60;;
14408;SDS011;7289;50.706;4.992;2024-01-11T05:56:07;0.63;;;0.63;;
14408;SDS011;7289;50.706;4.992;2024-01-11T05:58:36;0.80;;;0.80;;
14408;SDS011;7289;50.706;4.992;2024-01-11T06:01:05;0.70;;;0.70;;
14408;SDS011;7289;50.706;4.992;2024-01-11T06:03:34;0.60;;;0.60;;
14408;SDS011;7289;50.706;4.992;2024-01-11T06:06:04;0.80;;;0.80;;
14408;SDS011;7289;50.706;4.992;2024-01-11T06:08:35;0.63;;;0.63;;
14408;SDS011;7289;50.706;4.992;2024-01-11T06:11:03;0.60;;;0.60;;
14408;SDS011;7289;50.706;4.992;2024-01-11T06:13:34;0.60;;;0.60;;
14408;SDS011;7289;50.706;4.992;2024-01-11T06:16:02;0.60;;;0.60;;
14408;SDS011;7289;50.706;4.992;2024-01-11T06:18:31;0.60;;;0.60;;
14408;SDS011;7289;50.706;4.992;2024-01-11T06:21:00;0.63;;;0.63;;
14408;SDS011;7289;50.706;4.992;2024-01-11T06:23:28;0.80;;;0.80;;
14408;SDS011;7289;50.706;4.992;2024-01-11T06:25:58;0.70;;;0.70;;
14408;SDS011;7289;50.706;4.992;2024-01-11T06:28:27;0.80;;;0.80;;
14408;SDS011;7289;50.706;4.992;2024-01-11T06:30:55;0.70;;;0.70;;
14408;SDS011;7289;50.706;4.992;2024-01-11T06:33:24;0.60;;;0.60;;
14408;SDS011;7289;50.706;4.992;2024-01-11T06:35:52;0.60;;;0.60;;
14408;SDS011;7289;50.706;4.992;2024-01-11T06:38:20;0.60;;;0.60;;
14408;SDS011;7289;50.706;4.992;2024-01-11T06:40:49;0.63;;;0.63;;
14408;SDS011;7289;50.706;4.992;2024-01-11T06:43:19;0.70;;;0.70;;
14408;SDS011;7289;50.706;4.992;2024-01-11T06:45:47;0.60;;;0.60;;
14408;SDS011;7289;50.706;4.992;2024-01-11T06:48:15;0.60;;;0.60;;
14408;SDS011;7289;50.706;4.992;2024-01-11T06:50:44;0.60;;;0.60;;
14408;SDS011;7289;50.706;4.992;2024-01-11T06:53:13;0.70;;;0.70;;
14408;SDS011;7289;50.706;4.992;2024-01-11T06:55:41;0.60;;;0.60;;
14408;SDS011;7289;50.706;4.992;2024-01-11T06:58:11;0.60;;;0.60;;
14408;SDS011;7289;50.706;4.992;2024-01-11T07:00:40;0.60;;;0.60;;
14408;SDS011;7289;50.706;4.992;2024-01-11T07:03:10;0.90;;;0.90;;
14408;SDS011;7289;50.706;4.992;2024-01-11T07:05:39;0.60;;;0.60;;
14408;SDS011;7289;50.706;4.992;2024-01-11T07:08:08;0.70;;;0.70;;
14408;SDS011;7289;50.706;4.992;2024-01-11T07:10:37;0.60;;;0.60;;
14408;SDS011;7289;50.706;4.992;2024-01-11T07:13:05;0.60;;;0.60;;
14408;SDS011;7289;50.706;4.992;2024-01-11T07:15:33;0.60;;;0.60;;
14408;SDS011;7289;50.706;4.992;2024-01-11T07:18:03;0.60;;;0.60;;
14408;SDS011;7289;50.706;4.992;2024-01-11T07:20:32;0.60;;;0.60;;
14408;SDS011;7289;50.706;4.992;2024-01-11T07:23:01;0.60;;;0.60;;
14408;SDS011;7289;50.706;4.992;2024-01-11T07:25:29;0.60;;;0.60;;
14408;SDS011;7289;50.706;4.992;2024-01-11T07:27:58;0.70;;;0.70;;
14408;SDS011;7289;50.706;4.992;2024-01-11T07:30:27;0.63;;;0.63;;
14408;SDS011;7289;50.706;4.992;2024-01-11T07:32:55;0.87;;;0.87;;
14408;SDS011;7289;50.706;4.992;2024-01-11T07:35:25;0.70;;;0.70;;
14408;SDS011;7289;50.706;4.992;2024-01-11T07:37:53;0.67;;;0.67;;
14408;SDS011;7289;50.706;4.992;2024-01-11T07:40:24;0.70;;;0.70;;
14408;SDS011;7289;50.706;4.992;2024-01-11T07:42:52;0.70;;;0.70;;
14408;SDS011;7289;50.706;4.992;2024-01-11T07:45:21;0.57;;;0.57;;
14408;SDS011;7289;50.706;4.992;2024-01-11T07:47:49;0.70;;;0.70;;
14408;SDS011;7289;50.706;4.992;2024-01-11T07:50:17;0.60;;;0.60;;
14408;SDS011;7289;50.706;4.992;2024-01-11T07:52:47;0.60;;;0.60;;
14408;SDS011;7289;50.706;4.992;2024-01-11T07:55:16;0.60;;;0.60;;
14408;SDS011;7289;50.706;4.992;2024-01-11T07:57:44;0.60;;;0.60;;
14408;SDS011;7289;50.706;4.992;2024-01-11T08:00:13;0.80;;;0.80;;
14408;SDS011;7289;50.706;4.992;2024-01-11T08:02:42;0.70;;;0.70;;
14408;SDS011;7289;50.706;4.992;2024-01-11T08:05:11;0.90;;;0.90;;
14408;SDS011;7289;50.706;4.992;2024-01-11T08:07:40;0.60;;;0.60;;
14408;SDS011;7289;50.706;4.992;2024-01-11T08:10:12;0.60;;;0.60;;
14408;SDS011;7289;50.706;4.992;2024-01-11T08:12:40;0.60;;;0.60;;
14408;SDS011;7289;50.706;4.992;2024-01-11T08:15:09;0.60;;;0.60;;
14408;SDS011;7289;50.706;4.992;2024-01-11T08:17:39;0.67;;;0.67;;
14408;SDS011;7289;50.706;4.992;2024-01-11T08:20:14;0.80;;;0.80;;
14408;SDS011;7289;50.706;4.992;2024-01-11T08:22:43;0.60;;;0.60;;
14408;SDS011;7289;50.706;4.992;2024-01-11T08:25:14;0.60;;;0.60;;
14408;SDS011;7289;50.706;4.992;2024-01-11T08:27:42;0.60;;;0.60;;
14408;SDS011;7289;50.706;4.992;2024-01-11T08:30:11;0.60;;;0.60;;
14408;SDS011;7289;50.706;4.992;2024-01-11T08:32:40;0.70;;;0.70;;
14408;SDS011;7289;50.706;4.992;2024-01-11T08:35:09;0.80;;;0.80;;
14408;SDS011;7289;50.706;4.992;2024-01-11T08:37:39;0.60;;;0.60;;
14408;SDS011;7289;50.706;4.992;2024-01-11T08:40:08;0.60;;;0.60;;
14408;SDS011;7289;50.706;4.992;2024-01-11T08:42:39;0.70;;;0.70;;
14408;SDS011;7289;50.706;4.992;2024-01-11T08:45:08;0.60;;;0.60;;
14408;SDS011;7289;50.706;4.992;2024-01-11T08:47:37;0.60;;;0.60;;
14408;SDS011;7289;50.706;4.992;2024-01-11T08:50:07;0.60;;;0.60;;
14408;SDS011;7289;50.706;4.992;2024-01-11T08:52:37;0.80;;;0.80;;
14408;SDS011;7289;50.706;4.992;2024-01-11T08:55:06;0.80;;;0.80;;
14408;SDS011;7289;50.706;4.992;2024-01-11T08:57:35;0.60;;;0.60;;
14408;SDS011;7289;50.706;4.992;2024-01-11T09:00:06;0.60;;;0.60;;
14408;SDS011;7289;50.706;4.992;2024-01-11T09:02:35;0.60;;;0.60;;
14408;SDS011;7289;50.706;4.992;2024-01-11T09:05:03;0.70;;;0.70;;
14408;SDS011;7289;50.706;4.992;2024-01-11T09:07:35;0.60;;;0.60;;
14408;SDS011;7289;50.706;4.992;2024-01-11T09:10:04;0.60;;;0.60;;
14408;SDS011;7289;50.706;4.992;2024-01-11T09:12:35;0.60;;;0.60;;
14408;SDS011;7289;50.706;4.992;2024-01-11T09:15:03;0.60;;;0.60;;
14408;SDS011;7289;50.706;4.992;2024-01-11T09:17:34;0.60;;;0.60;;
14408;SDS011;7289;50.706;4.992;2024-01-11T09:20:04;0.60;;;0.60;;
14408;SDS011;7289;50.706;4.992;2024-01-11T09:22:33;0.80;;;0.80;;
14408;SDS011;7289;50.706;4.992;2024-01-11T09:25:03;0.70;;;0.70;;
14408;SDS011;7289;50.706;4.992;2024-01-11T09:27:34;0.50;;;0.50;;
14408;SDS011;7289;50.706;4.992;2024-01-11T09:30:03;0.60;;;0.60;;
14408;SDS011;7289;50.706;4.992;2024-01-11T09:32:35;0.70;;;0.70;;
14408;SDS011;7289;50.706;4.992;2024-01-11T09:35:04;0.60;;;0.60;;
14408;SDS011;7289;50.706;4.992;2024-01-11T09:37:36;0.60;;;0.60;;
14408;SDS011;7289;50.706;4.992;2024-01-11T09:40:05;0.60;;;0.60;;
14408;SDS011;7289;50.706;4.992;2024-01-11T09:42:37;0.60;;;0.60;;
14408;SDS011;7289;50.706;4.992;2024-01-11T09:45:09;0.60;;;0.60;;
14408;SDS011;7289;50.706;4.992;2024-01-11T09:47:41;0.80;;;0.80;;
14408;SDS011;7289;50.706;4.992;2024-01-11T09:50:12;0.50;;;0.50;;
14408;SDS011;7289;50.706;4.992;2024-01-11T09:52:46;0.50;;;0.50;;
14408;SDS011;7289;50.706;4.992;2024-01-11T09:55:15;0.50;;;0.50;;
14408;SDS011;7289;50.706;4.992;2024-01-11T09:57:46;0.60;;;0.60;;
14408;SDS011;7289;50.706;4.992;2024-01-11T10:00:18;0.70;;;0.70;;
14408;SDS011;7289;50.706;4.992;2024-01-11T10:02:50;0.60;;;0.60;;
14408;SDS011;7289;50.706;4.992;2024-01-11T10:05:18;0.60;;;0.60;;
14408;SDS011;7289;50.706;4.992;2024-01-11T10:07:47;0.60;;;0.60;;
14408;SDS011;7289;50.706;4.992;2024-01-11T10:10:16;0.70;;;0.70;;
14408;SDS011;7289;50.706;4.992;2024-01-11T10:12:45;0.60;;;0.60;;
14408;SDS011;7289;50.706;4.992;2024-01-11T10:15:17;0.60;;;0.60;;
14408;SDS011;7289;50.706;4.992;2024-01-11T10:17:45;0.60;;;0.60;;
14408;SDS011;7289;50.706;4.992;2024-01-11T10:20:15;0.40;;;0.40;;
14408;SDS011;7289;50.706;4.992;2024-01-11T10:22:44;0.50;;;0.50;;
14408;SDS011;7289;50.706;4.992;2024-01-11T10:25:15;0.50;;;0.50;;
14408;SDS011;7289;50.706;4.992;2024-01-11T10:27:44;0.53;;;0.53;;
14408;SDS011;7289;50.706;4.992;2024-01-11T10:30:13;0.50;;;0.50;;
14408;SDS011;7289;50.706;4.992;2024-01-11T10:32:46;0.50;;;0.50;;
14408;SDS011;7289;50.706;4.992;2024-01-11T10:35:15;0.50;;;0.50;;
14408;SDS011;7289;50.706;4.992;2024-01-11T10:37:45;0.50;;;0.50;;
14408;SDS011;7289;50.706;4.992;2024-01-11T10:40:20;0.50;;;0.50;;
14408;SDS011;7289;50.706;4.992;2024-01-11T10:42:52;0.50;;;0.50;;
14408;SDS011;7289;50.706;4.992;2024-01-11T10:45:20;0.40;;;0.40;;
14408;SDS011;7289;50.706;4.992;2024-01-11T10:47:53;0.50;;;0.50;;
14408;SDS011;7289;50.706;4.992;2024-01-11T10:50:28;0.50;;;0.50;;
14408;SDS011;7289;50.706;4.992;2024-01-11T10:53:03;0.50;;;0.50;;
14408;SDS011;7289;50.706;4.992;2024-01-11T10:55:39;0.50;;;0.50;;
14408;SDS011;7289;50.706;4.992;2024-01-11T10:58:10;0.50;;;0.50;;
14408;SDS011;7289;50.706;4.992;2024-01-11T11:00:39;0.40;;;0.40;;
14408;SDS011;7289;50.706;4.992;2024-01-11T11:03:09;0.60;;;0.60;;
14408;SDS011;7289;50.706;4.992;2024-01-11T11:05:39;0.50;;;0.50;;
14408;SDS011;7289;50.706;4.992;2024-01-11T11:08:10;0.50;;;0.50;;
14408;SDS011;7289;50.706;4.992;2024-01-11T11:10:40;0.50;;;0.50;;
14408;SDS011;7289;50.706;4.992;2024-01-11T11:13:09;0.50;;;0.50;;
14408;SDS011;7289;50.706;4.992;2024-01-11T11:15:41;0.50;;;0.50;;
14408;SDS011;7289;50.706;4.992;2024-01-11T11:18:14;0.50;;;0.50;;
14408;SDS011;7289;50.706;4.992;2024-01-11T11:20:45;0.50;;;0.50;;
14408;SDS011;7289;50.706;4.992;2024-01-11T11:23:16;0.50;;;0.50;;
14408;SDS011;7289;50.706;4.992;2024-01-11T11:25:46;0.50;;;0.50;;
14408;SDS011;7289;50.706;4.992;2024-01-11T11:28:15;0.50;;;0.50;;
14408;SDS011;7289;50.706;4.992;2024-01-11T11:30:47;0.50;;;0.50;;
14408;SDS011;7289;50.706;4.992;2024-01-11T11:33:22;0.40;;;0.40;;
14408;SDS011;7289;50.706;4.992;2024-01-11T11:35:54;0.50;;;0.50;;
14408;SDS011;7289;50.706;4.992;2024-01-11T11:38:25;0.50;;;0.50;;
14408;SDS011;7289;50.706;4.992;2024-01-11T11:40:56;0.50;;;0.50;;
14408;SDS011;7289;50.706;4.992;2024-01-11T11:43:26;0.50;;;0.50;;
14408;SDS011;7289;50.706;4.992;2024-01-11T11:45:56;0.50;;;0.50;;
14408;SDS011;7289;50.706;4.992;2024-01-11T11:48:49;0.60;;;0.60;;
14408;SDS011;7289;50.706;4.992;2024-01-11T11:51:22;0.40;;;0.40;;
14408;SDS011;7289;50.706;4.992;2024-01-11T11:53:54;0.50;;;0.50;;
14408;SDS011;7289;50.706;4.992;2024-01-11T11:56:23;0.40;;;0.40;;
14408;SDS011;7289;50.706;4.992;2024-01-11T11:58:53;0.50;;;0.50;;
14408;SDS011;7289;50.706;4.992;2024-01-11T12:01:22;0.40;;;0.40;;
14408;SDS011;7289;50.706;4.992;2024-01-11T12:03:52;0.40;;;0.40;;
14408;SDS011;7289;50.706;4.992;2024-01-11T12:06:21;0.40;;;0.40;;
14408;SDS011;7289;50.706;4.992;2024-01-11T12:08:52;0.43;;;0.43;;
14408;SDS011;7289;50.706;4.992;2024-01-11T12:11:25;0.50;;;0.50;;
14408;SDS011;7289;50.706;4.992;2024-01-11T12:13:54;0.40;;;0.40;;
14408;SDS011;7289;50.706;4.992;2024-01-11T12:16:26;0.50;;;0.50;;
14408;SDS011;7289;50.706;4.992;2024-01-11T12:18:56;0.40;;;0.40;;
14408;SDS011;7289;50.706;4.992;2024-01-11T12:21:25;0.50;;;0.50;;
14408;SDS011;7289;50.706;4.992;2024-01-11T12:23:54;0.57;;;0.57;;
14408;SDS011;7289;50.706;4.992;2024-01-11T12:26:22;0.50;;;0.50;;
14408;SDS011;7289;50.706;4.992;2024-01-11T12:28:51;0.40;;;0.40;;
14408;SDS011;7289;50.706;4.992;2024-01-11T12:31:21;0.40;;;0.40;;
14408;SDS011;7289;50.706;4.992;2024-01-11T12:33:51;0.40;;;0.40;;
14408;SDS011;7289;50.706;4.992;2024-01-11T12:36:23;0.40;;;0.40;;
14408;SDS011;7289;50.706;4.992;2024-01-11T12:38:52;0.40;;;0.40;;
14408;SDS011;7289;50.706;4.992;2024-01-11T12:41:21;0.40;;;0.40;;
14408;SDS011;7289;50.706;4.992;2024-01-11T12:43:51;0.50;;;0.50;;
14408;SDS011;7289;50.706;4.992;2024-01-11T12:46:20;0.40;;;0.40;;
14408;SDS011;7289;50.706;4.992;2024-01-11T12:48:52;0.40;;;0.40;;
14408;SDS011;7289;50.706;4.992;2024-01-11T12:51:22;0.40;;;0.40;;
14408;SDS011;7289;50.706;4.992;2024-01-11T12:53:51;0.43;;;0.43;;
14408;SDS011;7289;50.706;4.992;2024-01-11T12:56:22;0.40;;;0.40;;
14408;SDS011;7289;50.706;4.992;2024-01-11T12:58:51;0.40;;;0.40;;
14408;SDS011;7289;50.706;4.992;2024-01-11T13:01:33;0.40;;;0.40;;
14408;SDS011;7289;50.706;4.992;2024-01-11T13:04:02;0.40;;;0.40;;
14408;SDS011;7289;50.706;4.992;2024-01-11T13:06:32;0.40;;;0.40;;
14408;SDS011;7289;50.706;4.992;2024-01-11T13:09:01;0.40;;;0.40;;
14408;SDS011;7289;50.706;4.992;2024-01-11T13:11:31;0.40;;;0.40;;
14408;SDS011;7289;50.706;4.992;2024-01-11T13:14:00;0.50;;;0.50;;
14408;SDS011;7289;50.706;4.992;2024-01-11T13:16:33;0.50;;;0.50;;
14408;SDS011;7289;50.706;4.992;2024-01-11T13:19:01;0.40;;;0.40;;
14408;SDS011;7289;50.706;4.992;2024-01-11T13:21:47;0.40;;;0.40;;
14408;SDS011;7289;50.706;4.992;2024-01-11T13:24:15;0.40;;;0.40;;
14408;SDS011;7289;50.706;4.992;2024-01-11T13:26:44;0.40;;;0.40;;
14408;SDS011;7289;50.706;4.992;2024-01-11T13:29:12;0.37;;;0.37;;
14408;SDS011;7289;50.706;4.992;2024-01-11T13:31:41;0.40;;;0.40;;
14408;SDS011;7289;50.706;4.992;2024-01-11T13:34:09;0.40;;;0.40;;
14408;SDS011;7289;50.706;4.992;2024-01-11T13:36:37;0.40;;;0.40;;
14408;SDS011;7289;50.706;4.992;2024-01-11T13:39:07;0.40;;;0.40;;
14408;SDS011;7289;50.706;4.992;2024-01-11T13:41:36;0.30;;;0.30;;
14408;SDS011;7289;50.706;4.992;2024-01-11T13:44:04;0.40;;;0.40;;
14408;SDS011;7289;50.706;4.992;2024-01-11T13:46:33;0.37;;;0.37;;
14408;SDS011;7289;50.706;4.992;2024-01-11T13:49:01;0.40;;;0.40;;
14408;SDS011;7289;50.706;4.992;2024-01-11T13:51:31;0.40;;;0.40;;
14408;SDS011;7289;50.706;4.992;2024-01-11T13:54:13;0.40;;;0.40;;
14408;SDS011;7289;50.706;4.992;2024-01-11T13:56:41;0.40;;;0.40;;
14408;SDS011;7289;50.706;4.992;2024-01-11T13:59:10;0.40;;;0.40;;
14408;SDS011;7289;50.706;4.992;2024-01-11T14:01:38;0.40;;;0.40;;
14408;SDS011;7289;50.706;4.992;2024-01-11T14:04:07;0.40;;;0.40;;
14408;SDS011;7289;50.706;4.992;2024-01-11T14:06:35;0.30;;;0.30;;
14408;SDS011;7289;50.706;4.992;2024-01-11T14:09:04;0.40;;;0.40;;
14408;SDS011;7289;50.706;4.992;2024-01-11T14:11:37;0.37;;;0.37;;
14408;SDS011;7289;50.706;4.992;2024-01-11T14:14:06;0.30;;;0.30;;
14408;SDS011;7289;50.706;4.992;2024-01-11T14:16:34;0.40;;;0.40;;
14408;SDS011;7289;50.706;4.992;2024-01-11T14:19:04;0.40;;;0.40;;
14408;SDS011;7289;50.706;4.992;2024-01-11T14:21:32;0.40;;;0.40;;
14408;SDS011;7289;50.706;4.992;2024-01-11T14:24:01;0.40;;;0.40;;
14408;SDS011;7289;50.706;4.992;2024-01-11T14:26:30;0.40;;;0.40;;
14408;SDS011;7289;50.706;4.992;2024-01-11T14:29:01;0.30;;;0.30;;
14408;SDS011;7289;50.706;4.992;2024-01-11T14:31:30;0.40;;;0.40;;
14408;SDS011;7289;50.706;4.992;2024-01-11T14:33:58;0.40;;;0.40;;
14408;SDS011;7289;50.706;4.992;2024-01-11T14:36:27;0.40;;;0.40;;
14408;SDS011;7289;50.706;4.992;2024-01-11T14:38:57;0.40;;;0.40;;
14408;SDS011;7289;50.706;4.992;2024-01-11T14:41:25;0.40;;;0.40;;
14408;SDS011;7289;50.706;4.992;2024-01-11T14:43:54;0.50;;;0.50;;
14408;SDS011;7289;50.706;4.992;2024-01-11T14:46:25;0.40;;;0.40;;
14408;SDS011;7289;50.706;4.992;2024-01-11T14:48:55;0.40;;;0.40;;
14408;SDS011;7289;50.706;4.992;2024-01-11T14:51:24;0.30;;;0.30;;
14408;SDS011;7289;50.706;4.992;2024-01-11T14:53:56;0.40;;;0.40;;
14408;SDS011;7289;50.706;4.992;2024-01-11T14:56:25;0.40;;;0.40;;
14408;SDS011;7289;50.706;4.992;2024-01-11T14:58:53;0.50;;;0.50;;
14408;SDS011;7289;50.706;4.992;2024-01-11T15:01:22;0.50;;;0.50;;
14408;SDS011;7289;50.706;4.992;2024-01-11T15:03:51;0.30;;;0.30;;
14408;SDS011;7289;50.706;4.992;2024-01-11T15:06:21;0.40;;;0.40;;
14408;SDS011;7289;50.706;4.992;2024-01-11T15:08:50;0.40;;;0.40;;
14408;SDS011;7289;50.706;4.992;2024-01-11T15:11:19;0.50;;;0.50;;
14408;SDS011;7289;50.706;4.992;2024-01-11T15:13:47;0.40;;;0.40;;